sensor_id;sensor_type;location;lat;lon;timestamp;pressure;altitude;pressure_sealevel;temperature;humidity
50105;BME280;47690;39.202;-77.198;2023-10-13T00:02:20;99754.00;;;18.22;49.58
50105;BME280;47690;39.202;-77.198;2023-10-13T00:05:16;99764.41;;;18.22;49.71
50105;BME280;47690;39.202;-77.198;2023-10-13T00:07:46;99769.88;;;18.17;49.80
50105;BME280;47690;39.202;-77.198;2023-10-13T00:10:32;99771.00;;;18.13;50.60
50105;BME280;47690;39.202;-77.198;2023-10-13T00:13:21;99765.41;;;18.03;50.09
50105;BME280;47690;39.202;-77.198;2023-10-13T00:15:56;99768.78;;;18.05;50.54
50105;BME280;47690;39.202;-77.198;2023-10-13T00:18:39;99766.34;;;18.02;50.81
50105;BME280;47690;39.202;-77.198;2023-10-13T00:21:17;99757.97;;;17.95;50.85
50105;BME280;47690;39.202;-77.198;2023-10-13T00:24:20;99762.19;;;17.98;51.32
50105;BME280;47690;39.202;-77.198;2023-10-13T00:27:04;99766.81;;;17.93;51.07
50105;BME280;47690;39.202;-77.198;2023-10-13T00:29:46;99764.38;;;17.89;51.09
50105;BME280;47690;39.202;-77.198;2023-10-13T00:32:28;99774.97;;;17.86;51.04
50105;BME280;47690;39.202;-77.198;2023-10-13T00:35:38;99772.94;;;17.75;51.64
50105;BME280;47690;39.202;-77.198;2023-10-13T00:55:49;99780.28;;;17.67;53.01
50105;BME280;47690;39.202;-77.198;2023-10-13T01:00:37;99802.34;;;17.60;52.83
50105;BME280;47690;39.202;-77.198;2023-10-13T02:10:46;99848.03;;;16.77;54.41
50105;BME280;47690;39.202;-77.198;2023-10-13T02:13:15;99850.16;;;16.69;53.73
50105;BME280;47690;39.202;-77.198;2023-10-13T02:15:47;99851.19;;;16.65;53.98
50105;BME280;47690;39.202;-77.198;2023-10-13T02:18:19;99861.81;;;16.60;53.75
50105;BME280;47690;39.202;-77.198;2023-10-13T02:20:56;99855.91;;;16.57;53.99
50105;BME280;47690;39.202;-77.198;2023-10-13T02:23:33;99855.22;;;16.53;54.06
50105;BME280;47690;39.202;-77.198;2023-10-13T02:26:07;99861.31;;;16.52;54.00
50105;BME280;47690;39.202;-77.198;2023-10-13T02:28:47;99866.59;;;16.50;54.33
50105;BME280;47690;39.202;-77.198;2023-10-13T02:31:21;99871.94;;;16.47;54.11
50105;BME280;47690;39.202;-77.198;2023-10-13T02:33:53;99876.28;;;16.47;54.34
50105;BME280;47690;39.202;-77.198;2023-10-13T02:36:23;99882.47;;;16.44;54.46
50105;BME280;47690;39.202;-77.198;2023-10-13T02:39:05;99882.56;;;16.43;54.68
50105;BME280;47690;39.202;-77.198;2023-10-13T02:41:43;99872.22;;;16.41;54.49
50105;BME280;47690;39.202;-77.198;2023-10-13T02:44:17;99879.09;;;16.42;54.78
50105;BME280;47690;39.202;-77.198;2023-10-13T02:46:59;99881.75;;;16.41;55.01
50105;BME280;47690;39.202;-77.198;2023-10-13T02:49:29;99875.72;;;16.40;54.86
50105;BME280;47690;39.202;-77.198;2023-10-13T02:52:03;99871.44;;;16.39;54.94
50105;BME280;47690;39.202;-77.198;2023-10-13T02:54:40;99863.66;;;16.39;55.06
50105;BME280;47690;39.202;-77.198;2023-10-13T02:57:17;99845.78;;;16.31;55.10
50105;BME280;47690;39.202;-77.198;2023-10-13T02:59:46;99858.50;;;16.37;55.26
50105;BME280;47690;39.202;-77.198;2023-10-13T03:02:16;99856.03;;;16.34;55.36
50105;BME280;47690;39.202;-77.198;2023-10-13T03:04:57;99850.94;;;16.33;55.17
50105;BME280;47690;39.202;-77.198;2023-10-13T03:07:53;99850.94;;;16.33;55.39
50105;BME280;47690;39.202;-77.198;2023-10-13T03:10:26;99850.13;;;16.31;55.73
50105;BME280;47690;39.202;-77.198;2023-10-13T03:12:58;99851.84;;;16.32;55.78
50105;BME280;47690;39.202;-77.198;2023-10-13T03:15:31;99847.53;;;16.31;56.10
50105;BME280;47690;39.202;-77.198;2023-10-13T03:18:00;99857.88;;;16.32;56.07
50105;BME280;47690;39.202;-77.198;2023-10-13T03:20:30;99860.53;;;16.31;56.05
50105;BME280;47690;39.202;-77.198;2023-10-13T03:23:01;99868.22;;;16.34;56.18
50105;BME280;47690;39.202;-77.198;2023-10-13T03:25:40;99869.94;;;16.33;56.11
50105;BME280;47690;39.202;-77.198;2023-10-13T03:28:12;99868.22;;;16.34;56.19
50105;BME280;47690;39.202;-77.198;2023-10-13T03:30:52;99863.84;;;16.34;56.10
50105;BME280;47690;39.202;-77.198;2023-10-13T03:33:22;99858.72;;;16.33;56.11
50105;BME280;47690;39.202;-77.198;2023-10-13T03:35:58;99850.00;;;16.34;56.29
50105;BME280;47690;39.202;-77.198;2023-10-13T03:38:34;99848.47;;;16.30;56.05
50105;BME280;47690;39.202;-77.198;2023-10-13T03:41:06;99853.59;;;16.31;56.03
50105;BME280;47690;39.202;-77.198;2023-10-13T03:43:38;99864.06;;;16.30;56.42
50105;BME280;47690;39.202;-77.198;2023-10-13T03:46:42;99862.38;;;16.29;56.14
50105;BME280;47690;39.202;-77.198;2023-10-13T03:49:42;99855.44;;;16.29;56.88
50105;BME280;47690;39.202;-77.198;2023-10-13T03:52:12;99873.94;;;16.21;56.53
50105;BME280;47690;39.202;-77.198;2023-10-13T03:54:42;99873.19;;;16.19;56.62
50105;BME280;47690;39.202;-77.198;2023-10-13T03:57:12;99866.22;;;16.20;56.63
50105;BME280;47690;39.202;-77.198;2023-10-13T03:59:45;99857.59;;;16.19;56.85
50105;BME280;47690;39.202;-77.198;2023-10-13T04:02:18;99856.63;;;16.22;56.80
50105;BME280;47690;39.202;-77.198;2023-10-13T04:04:55;99862.72;;;16.21;56.79
50105;BME280;47690;39.202;-77.198;2023-10-13T04:07:25;99851.47;;;16.20;56.61
50105;BME280;47690;39.202;-77.198;2023-10-13T04:09:54;99847.19;;;16.19;56.56
50105;BME280;47690;39.202;-77.198;2023-10-13T04:12:44;99849.03;;;16.17;56.52
50105;BME280;47690;39.202;-77.198;2023-10-13T04:15:31;99849.22;;;16.13;56.24
50105;BME280;47690;39.202;-77.198;2023-10-13T04:18:30;99856.38;;;16.07;56.32
50105;BME280;47690;39.202;-77.198;2023-10-13T04:21:15;99870.66;;;16.18;57.09
50105;BME280;47690;39.202;-77.198;2023-10-13T04:24:12;99872.19;;;16.03;56.15
50105;BME280;47690;39.202;-77.198;2023-10-13T04:26:49;99880.25;;;15.96;56.50
50105;BME280;47690;39.202;-77.198;2023-10-13T04:29:48;99888.16;;;15.93;56.45
50105;BME280;47690;39.202;-77.198;2023-10-13T04:32:42;99888.16;;;15.93;56.47
50105;BME280;47690;39.202;-77.198;2023-10-13T04:35:16;99879.69;;;15.88;56.44
50105;BME280;47690;39.202;-77.198;2023-10-13T04:37:48;99891.06;;;15.86;56.74
50105;BME280;47690;39.202;-77.198;2023-10-13T04:40:31;99885.97;;;15.82;56.71
50105;BME280;47690;39.202;-77.198;2023-10-13T04:43:07;99888.56;;;15.82;57.18
50105;BME280;47690;39.202;-77.198;2023-10-13T04:46:01;99894.78;;;15.80;56.91
50105;BME280;47690;39.202;-77.198;2023-10-13T04:48:54;99899.97;;;15.80;57.03
50105;BME280;47690;39.202;-77.198;2023-10-13T04:52:13;99896.38;;;15.82;57.74
50105;BME280;47690;39.202;-77.198;2023-10-13T04:54:59;99905.16;;;15.80;57.18
50105;BME280;47690;39.202;-77.198;2023-10-13T04:57:41;99893.97;;;15.78;57.25
50105;BME280;47690;39.202;-77.198;2023-10-13T05:00:21;99894.88;;;15.77;57.50
50105;BME280;47690;39.202;-77.198;2023-10-13T05:03:10;99905.41;;;15.74;57.46
50105;BME280;47690;39.202;-77.198;2023-10-13T05:06:14;99910.59;;;15.74;57.55
50105;BME280;47690;39.202;-77.198;2023-10-13T05:09:02;99909.75;;;15.73;57.62
50105;BME280;47690;39.202;-77.198;2023-10-13T05:11:51;99902.00;;;15.71;57.78
50105;BME280;47690;39.202;-77.198;2023-10-13T05:14:41;99902.09;;;15.70;58.01
50105;BME280;47690;39.202;-77.198;2023-10-13T05:17:31;99908.00;;;15.74;58.11
50105;BME280;47690;39.202;-77.198;2023-10-13T05:20:18;99902.81;;;15.74;57.96
50105;BME280;47690;39.202;-77.198;2023-10-13T05:23:06;99904.56;;;15.73;58.46
50105;BME280;47690;39.202;-77.198;2023-10-13T05:25:54;99907.09;;;15.75;58.55
50105;BME280;47690;39.202;-77.198;2023-10-13T05:28:42;99913.13;;;15.75;58.49
50105;BME280;47690;39.202;-77.198;2023-10-13T05:31:46;99909.63;;;15.76;58.63
50105;BME280;47690;39.202;-77.198;2023-10-13T05:34:34;99907.03;;;15.76;58.87
50105;BME280;47690;39.202;-77.198;2023-10-13T05:37:26;99899.09;;;15.79;58.87
50105;BME280;47690;39.202;-77.198;2023-10-13T05:40:13;99900.03;;;15.78;58.96
50105;BME280;47690;39.202;-77.198;2023-10-13T05:43:27;99900.69;;;15.83;59.77
50105;BME280;47690;39.202;-77.198;2023-10-13T05:46:14;99894.78;;;15.80;59.14
50105;BME280;47690;39.202;-77.198;2023-10-13T05:48:56;99903.44;;;15.79;59.29
50105;BME280;47690;39.202;-77.198;2023-10-13T05:51:30;99907.75;;;15.80;59.42
50105;BME280;47690;39.202;-77.198;2023-10-13T05:54:11;99896.56;;;15.78;59.41
50105;BME280;47690;39.202;-77.198;2023-10-13T05:56:49;99894.81;;;15.78;59.68
50105;BME280;47690;39.202;-77.198;2023-10-13T05:59:37;99893.16;;;15.77;59.59
50105;BME280;47690;39.202;-77.198;2023-10-13T06:02:27;99893.19;;;15.76;59.63
50105;BME280;47690;39.202;-77.198;2023-10-13T06:05:16;99904.44;;;15.76;59.45
50105;BME280;47690;39.202;-77.198;2023-10-13T06:08:04;99908.00;;;15.74;59.55
50105;BME280;47690;39.202;-77.198;2023-10-13T06:11:01;99912.28;;;15.75;59.98
50105;BME280;47690;39.202;-77.198;2023-10-13T06:13:49;99916.72;;;15.73;59.75
50105;BME280;47690;39.202;-77.198;2023-10-13T06:16:36;99911.56;;;15.71;59.79
50105;BME280;47690;39.202;-77.198;2023-10-13T06:19:28;99903.72;;;15.73;59.84
50105;BME280;47690;39.202;-77.198;2023-10-13T06:22:17;99901.97;;;15.73;59.88
50105;BME280;47690;39.202;-77.198;2023-10-13T06:25:06;99919.22;;;15.74;59.79
50105;BME280;47690;39.202;-77.198;2023-10-13T06:27:54;99918.41;;;15.74;59.92
50105;BME280;47690;39.202;-77.198;2023-10-13T06:30:57;99919.94;;;15.78;60.28
50105;BME280;47690;39.202;-77.198;2023-10-13T06:33:27;99924.38;;;15.76;59.92
50105;BME280;47690;39.202;-77.198;2023-10-13T06:36:05;99913.06;;;15.77;60.14
50105;BME280;47690;39.202;-77.198;2023-10-13T06:38:40;99913.13;;;15.75;60.13
50105;BME280;47690;39.202;-77.198;2023-10-13T06:41:41;99916.38;;;15.80;60.23
50105;BME280;47690;39.202;-77.198;2023-10-13T06:44:12;99915.53;;;15.80;60.22
50105;BME280;47690;39.202;-77.198;2023-10-13T06:46:44;99907.03;;;15.76;60.23
50105;BME280;47690;39.202;-77.198;2023-10-13T06:49:16;99898.44;;;15.74;60.25
50105;BME280;47690;39.202;-77.198;2023-10-13T06:51:47;99893.25;;;15.74;60.48
50105;BME280;47690;39.202;-77.198;2023-10-13T06:54:20;99892.34;;;15.75;60.61
50105;BME280;47690;39.202;-77.198;2023-10-13T06:56:49;99894.94;;;15.75;60.68
50105;BME280;47690;39.202;-77.198;2023-10-13T06:59:22;99896.75;;;15.73;60.65
50105;BME280;47690;39.202;-77.198;2023-10-13T07:01:55;99891.63;;;15.71;60.58
50105;BME280;47690;39.202;-77.198;2023-10-13T07:04:51;99877.88;;;15.69;60.68
50105;BME280;47690;39.202;-77.198;2023-10-13T07:07:39;99890.75;;;15.73;60.62
50105;BME280;47690;39.202;-77.198;2023-10-13T07:10:13;99876.19;;;15.68;61.10
50105;BME280;47690;39.202;-77.198;2023-10-13T07:12:42;99883.06;;;15.69;60.75
50105;BME280;47690;39.202;-77.198;2023-10-13T07:15:36;99876.84;;;15.74;61.58
50105;BME280;47690;39.202;-77.198;2023-10-13T07:18:16;99869.19;;;15.70;60.96
50105;BME280;47690;39.202;-77.198;2023-10-13T07:20:47;99873.66;;;15.67;61.10
50105;BME280;47690;39.202;-77.198;2023-10-13T07:23:15;99879.66;;;15.69;61.17
50105;BME280;47690;39.202;-77.198;2023-10-13T07:25:56;99879.66;;;15.69;61.64
50105;BME280;47690;39.202;-77.198;2023-10-13T07:28:32;99880.63;;;15.66;61.44
50105;BME280;47690;39.202;-77.198;2023-10-13T07:31:16;99886.56;;;15.68;61.37
50105;BME280;47690;39.202;-77.198;2023-10-13T07:33:47;99898.78;;;15.66;61.38
50105;BME280;47690;39.202;-77.198;2023-10-13T07:36:17;99905.66;;;15.67;61.46
50105;BME280;47690;39.202;-77.198;2023-10-13T07:39:02;99899.56;;;15.68;61.72
50105;BME280;47690;39.202;-77.198;2023-10-13T07:42:01;99903.78;;;15.71;61.62
50105;BME280;47690;39.202;-77.198;2023-10-13T07:44:46;99895.13;;;15.70;61.97
50105;BME280;47690;39.202;-77.198;2023-10-13T07:47:16;99901.13;;;15.73;61.84
50105;BME280;47690;39.202;-77.198;2023-10-13T07:49:47;99895.94;;;15.73;61.91
50105;BME280;47690;39.202;-77.198;2023-10-13T07:52:20;99887.34;;;15.70;62.06
50105;BME280;47690;39.202;-77.198;2023-10-13T07:54:59;99888.00;;;15.76;61.92
50105;BME280;47690;39.202;-77.198;2023-10-13T07:57:32;99895.75;;;15.77;62.16
50105;BME280;47690;39.202;-77.198;2023-10-13T08:00:01;99894.06;;;15.76;62.10
50105;BME280;47690;39.202;-77.198;2023-10-13T08:02:41;99901.00;;;15.76;61.93
50105;BME280;47690;39.202;-77.198;2023-10-13T08:05:22;99899.31;;;15.75;61.92
50105;BME280;47690;39.202;-77.198;2023-10-13T08:08:15;99903.72;;;15.73;61.85
50105;BME280;47690;39.202;-77.198;2023-10-13T08:11:10;99907.88;;;15.77;62.51
50105;BME280;47690;39.202;-77.198;2023-10-13T08:13:41;99910.66;;;15.72;62.13
50105;BME280;47690;39.202;-77.198;2023-10-13T08:16:33;99915.91;;;15.70;62.16
50105;BME280;47690;39.202;-77.198;2023-10-13T08:19:23;99912.50;;;15.70;62.41
50105;BME280;47690;39.202;-77.198;2023-10-13T08:22:15;99925.47;;;15.70;62.21
50105;BME280;47690;39.202;-77.198;2023-10-13T08:24:49;99927.34;;;15.66;62.12
50105;BME280;47690;39.202;-77.198;2023-10-13T08:27:19;99925.72;;;15.64;62.13
50105;BME280;47690;39.202;-77.198;2023-10-13T08:30:17;99922.34;;;15.62;61.89
50105;BME280;47690;39.202;-77.198;2023-10-13T08:32:58;99926.75;;;15.60;61.92
50105;BME280;47690;39.202;-77.198;2023-10-13T08:35:51;99927.66;;;15.59;62.02
50105;BME280;47690;39.202;-77.198;2023-10-13T08:38:23;99923.56;;;15.53;61.72
50105;BME280;47690;39.202;-77.198;2023-10-13T08:41:02;99937.50;;;15.50;61.88
50105;BME280;47690;39.202;-77.198;2023-10-13T08:43:52;99944.53;;;15.48;61.92
50105;BME280;47690;39.202;-77.198;2023-10-13T08:46:32;99946.31;;;15.46;61.78
50105;BME280;47690;39.202;-77.198;2023-10-13T08:49:23;99944.75;;;15.42;61.96
50105;BME280;47690;39.202;-77.198;2023-10-13T08:51:53;99947.41;;;15.40;62.21
50105;BME280;47690;39.202;-77.198;2023-10-13T08:55:18;99948.19;;;15.42;62.11
50105;BME280;47690;39.202;-77.198;2023-10-13T08:58:07;99956.13;;;15.39;62.05
50105;BME280;47690;39.202;-77.198;2023-10-13T09:00:44;99959.63;;;15.38;62.06
50105;BME280;47690;39.202;-77.198;2023-10-13T09:03:41;99958.03;;;15.34;62.03
50105;BME280;47690;39.202;-77.198;2023-10-13T09:06:14;99965.09;;;15.30;61.84
50105;BME280;47690;39.202;-77.198;2023-10-13T09:08:49;99966.91;;;15.28;61.96
50105;BME280;47690;39.202;-77.198;2023-10-13T09:11:47;99973.94;;;15.26;61.78
50105;BME280;47690;39.202;-77.198;2023-10-13T09:14:24;99975.78;;;15.23;61.69
50105;BME280;47690;39.202;-77.198;2023-10-13T09:17:06;99975.84;;;15.21;61.73
50105;BME280;47690;39.202;-77.198;2023-10-13T09:19:45;99986.28;;;15.20;61.88
50105;BME280;47690;39.202;-77.198;2023-10-13T09:22:25;99999.44;;;15.15;61.97
50105;BME280;47690;39.202;-77.198;2023-10-13T09:25:06;100002.97;;;15.12;61.68
50105;BME280;47690;39.202;-77.198;2023-10-13T09:27:41;99991.09;;;15.07;61.63
50105;BME280;47690;39.202;-77.198;2023-10-13T09:30:11;100004.84;;;15.09;61.65
50105;BME280;47690;39.202;-77.198;2023-10-13T09:32:58;100008.25;;;15.11;61.99
50105;BME280;47690;39.202;-77.198;2023-10-13T09:35:31;99996.09;;;15.11;61.97
50105;BME280;47690;39.202;-77.198;2023-10-13T09:38:27;99994.00;;;15.21;62.37
50105;BME280;47690;39.202;-77.198;2023-10-13T09:41:23;100003.44;;;15.24;62.16
50105;BME280;47690;39.202;-77.198;2023-10-13T09:43:55;100012.13;;;15.23;62.00
50105;BME280;47690;39.202;-77.198;2023-10-13T09:46:29;99999.16;;;15.23;61.82
50105;BME280;47690;39.202;-77.198;2023-10-13T09:48:59;100008.66;;;15.22;61.86
50105;BME280;47690;39.202;-77.198;2023-10-13T09:51:44;99997.38;;;15.23;61.71
50105;BME280;47690;39.202;-77.198;2023-10-13T09:54:26;100005.00;;;15.28;61.69
50105;BME280;47690;39.202;-77.198;2023-10-13T09:57:10;100009.16;;;15.32;61.47
50105;BME280;47690;39.202;-77.198;2023-10-13T10:00:09;100020.41;;;15.33;61.17
50105;BME280;47690;39.202;-77.198;2023-10-13T10:02:59;100019.66;;;15.29;61.05
50105;BME280;47690;39.202;-77.198;2023-10-13T10:05:59;100016.09;;;15.32;61.24
50105;BME280;47690;39.202;-77.198;2023-10-13T10:08:45;100023.03;;;15.31;61.08
50105;BME280;47690;39.202;-77.198;2023-10-13T10:11:29;100026.47;;;15.32;61.14
50105;BME280;47690;39.202;-77.198;2023-10-13T10:14:28;100025.50;;;15.34;61.08
50105;BME280;47690;39.202;-77.198;2023-10-13T10:17:08;100029.91;;;15.32;61.00
50105;BME280;47690;39.202;-77.198;2023-10-13T10:19:49;100046.28;;;15.34;60.97
50105;BME280;47690;39.202;-77.198;2023-10-13T10:22:43;100047.00;;;15.38;60.88
50105;BME280;47690;39.202;-77.198;2023-10-13T10:25:39;100052.28;;;15.36;60.82
50105;BME280;47690;39.202;-77.198;2023-10-13T10:28:15;100054.00;;;15.36;60.80
50105;BME280;47690;39.202;-77.198;2023-10-13T10:30:45;100043.66;;;15.34;60.86
50105;BME280;47690;39.202;-77.198;2023-10-13T10:33:29;100042.72;;;15.37;60.77
50105;BME280;47690;39.202;-77.198;2023-10-13T10:36:02;100040.13;;;15.37;60.60
50105;BME280;47690;39.202;-77.198;2023-10-13T10:38:34;100047.06;;;15.36;60.44
50105;BME280;47690;39.202;-77.198;2023-10-13T10:41:31;100049.81;;;15.32;60.08
50105;BME280;47690;39.202;-77.198;2023-10-13T10:44:17;100067.34;;;15.26;59.84
50105;BME280;47690;39.202;-77.198;2023-10-13T10:47:13;100074.50;;;15.20;59.80
50105;BME280;47690;39.202;-77.198;2023-10-13T10:50:02;100085.13;;;15.13;59.88
50105;BME280;47690;39.202;-77.198;2023-10-13T10:53:05;100086.06;;;15.11;60.15
50105;BME280;47690;39.202;-77.198;2023-10-13T10:55:41;100081.09;;;15.05;60.34
50105;BME280;47690;39.202;-77.198;2023-10-13T10:58:18;100088.16;;;15.01;60.52
50105;BME280;47690;39.202;-77.198;2023-10-13T11:01:18;100096.75;;;15.01;60.40
50105;BME280;47690;39.202;-77.198;2023-10-13T11:04:00;100091.53;;;15.03;60.55
50105;BME280;47690;39.202;-77.198;2023-10-13T11:06:54;100078.56;;;15.03;60.65
50105;BME280;47690;39.202;-77.198;2023-10-13T11:09:33;100080.25;;;15.04;60.78
50105;BME280;47690;39.202;-77.198;2023-10-13T11:14:46;100093.34;;;15.01;60.31
50105;BME280;47690;39.202;-77.198;2023-10-13T11:17:23;100097.63;;;15.02;60.57
50105;BME280;47690;39.202;-77.198;2023-10-13T11:20:22;100103.66;;;15.02;60.43
50105;BME280;47690;39.202;-77.198;2023-10-13T11:22:55;100108.94;;;14.99;60.52
50105;BME280;47690;39.202;-77.198;2023-10-13T11:25:27;100121.22;;;14.94;60.57
50105;BME280;47690;39.202;-77.198;2023-10-13T11:30:51;100135.91;;;14.95;60.52
50105;BME280;47690;39.202;-77.198;2023-10-13T11:33:22;100142.13;;;14.89;60.58
50105;BME280;47690;39.202;-77.198;2023-10-13T11:36:01;100143.03;;;14.88;60.63
50105;BME280;47690;39.202;-77.198;2023-10-13T11:38:33;100143.00;;;14.90;60.56
50105;BME280;47690;39.202;-77.198;2023-10-13T11:41:38;100153.38;;;14.90;60.32
50105;BME280;47690;39.202;-77.198;2023-10-13T11:44:16;100164.69;;;14.87;60.60
50105;BME280;47690;39.202;-77.198;2023-10-13T11:46:51;100173.34;;;14.88;60.59
50105;BME280;47690;39.202;-77.198;2023-10-13T11:49:25;100169.03;;;14.87;60.66
50105;BME280;47690;39.202;-77.198;2023-10-13T11:51:58;100184.53;;;14.88;60.82
50105;BME280;47690;39.202;-77.198;2023-10-13T11:54:47;100180.88;;;14.94;60.89
50105;BME280;47690;39.202;-77.198;2023-10-13T11:57:19;100173.75;;;15.01;61.10
50105;BME280;47690;39.202;-77.198;2023-10-13T11:59:51;100177.81;;;15.08;61.37
50105;BME280;47690;39.202;-77.198;2023-10-13T12:02:31;100183.47;;;15.20;61.33
50105;BME280;47690;39.202;-77.198;2023-10-13T12:05:25;100194.19;;;15.34;61.38
50105;BME280;47690;39.202;-77.198;2023-10-13T12:08:15;100201.50;;;15.48;61.44
50105;BME280;47690;39.202;-77.198;2023-10-13T12:11:04;100197.59;;;15.60;61.20
50105;BME280;47690;39.202;-77.198;2023-10-13T12:13:53;100203.13;;;15.75;61.40
50105;BME280;47690;39.202;-77.198;2023-10-13T12:16:22;100197.59;;;15.84;61.42
50105;BME280;47690;39.202;-77.198;2023-10-13T12:18:53;100203.31;;;15.94;61.43
50105;BME280;47690;39.202;-77.198;2023-10-13T12:21:23;100201.13;;;16.05;61.20
50105;BME280;47690;39.202;-77.198;2023-10-13T12:23:52;100205.13;;;16.14;61.40
50105;BME280;47690;39.202;-77.198;2023-10-13T12:26:22;100203.88;;;16.24;61.47
50105;BME280;47690;39.202;-77.198;2023-10-13T12:29:03;100192.38;;;16.30;61.24
50105;BME280;47690;39.202;-77.198;2023-10-13T12:31:52;100193.59;;;16.44;61.19
50105;BME280;47690;39.202;-77.198;2023-10-13T12:34:35;100199.38;;;16.50;61.22
50105;BME280;47690;39.202;-77.198;2023-10-13T12:37:24;100198.25;;;16.56;60.97
50105;BME280;47690;39.202;-77.198;2023-10-13T12:40:19;100203.25;;;16.83;60.87
50105;BME280;47690;39.202;-77.198;2023-10-13T12:43:17;100207.06;;;16.74;60.77
50105;BME280;47690;39.202;-77.198;2023-10-13T12:46:11;100209.47;;;16.79;60.71
50105;BME280;47690;39.202;-77.198;2023-10-13T12:49:00;100217.88;;;16.86;61.04
50105;BME280;47690;39.202;-77.198;2023-10-13T12:51:49;100228.16;;;16.89;60.82
50105;BME280;47690;39.202;-77.198;2023-10-13T12:54:21;100227.91;;;16.95;60.76
50105;BME280;47690;39.202;-77.198;2023-10-13T12:56:57;100229.59;;;16.96;60.78
50105;BME280;47690;39.202;-77.198;2023-10-13T12:59:27;100229.31;;;17.04;60.59
50105;BME280;47690;39.202;-77.198;2023-10-13T13:02:02;100242.13;;;17.09;60.63
50105;BME280;47690;39.202;-77.198;2023-10-13T13:04:42;100236.75;;;17.12;60.44
50105;BME280;47690;39.202;-77.198;2023-10-13T13:07:20;100254.63;;;17.21;60.48
50105;BME280;47690;39.202;-77.198;2023-10-13T13:09:50;100259.63;;;17.26;60.35
50105;BME280;47690;39.202;-77.198;2023-10-13T13:12:24;100259.34;;;17.32;60.15
50105;BME280;47690;39.202;-77.198;2023-10-13T13:14:54;100264.34;;;17.37;60.17
50105;BME280;47690;39.202;-77.198;2023-10-13T13:17:27;100266.00;;;17.39;60.10
50105;BME280;47690;39.202;-77.198;2023-10-13T13:19:56;100262.47;;;17.40;60.24
50105;BME280;47690;39.202;-77.198;2023-10-13T13:22:26;100273.50;;;17.45;60.06
50105;BME280;47690;39.202;-77.198;2023-10-13T13:25:23;100272.63;;;17.46;59.86
50105;BME280;47690;39.202;-77.198;2023-10-13T13:27:59;100269.31;;;17.43;59.51
50105;BME280;47690;39.202;-77.198;2023-10-13T13:30:41;100277.84;;;17.46;59.31
50105;BME280;47690;39.202;-77.198;2023-10-13T13:33:13;100270.03;;;17.46;59.13
50105;BME280;47690;39.202;-77.198;2023-10-13T13:35:44;100266.41;;;17.49;59.41
50105;BME280;47690;39.202;-77.198;2023-10-13T13:38:24;100256.78;;;17.51;59.45
50105;BME280;47690;39.202;-77.198;2023-10-13T13:41:02;100248.88;;;17.53;58.91
50105;BME280;47690;39.202;-77.198;2023-10-13T13:43:42;100251.50;;;17.53;59.01
50105;BME280;47690;39.202;-77.198;2023-10-13T13:46:29;100242.91;;;17.51;58.91
50105;BME280;47690;39.202;-77.198;2023-10-13T13:49:10;100248.19;;;17.49;58.88
50105;BME280;47690;39.202;-77.198;2023-10-13T13:51:47;100252.81;;;17.42;58.74
50105;BME280;47690;39.202;-77.198;2023-10-13T13:54:23;100252.75;;;17.44;58.49
50105;BME280;47690;39.202;-77.198;2023-10-13T13:57:00;100255.38;;;17.44;58.01
50105;BME280;47690;39.202;-77.198;2023-10-13T13:59:30;100264.97;;;17.42;58.18
50105;BME280;47690;39.202;-77.198;2023-10-13T14:02:02;100265.91;;;17.41;57.93
50105;BME280;47690;39.202;-77.198;2023-10-13T14:04:51;100275.41;;;17.42;57.86
50105;BME280;47690;39.202;-77.198;2023-10-13T14:07:21;100282.31;;;17.43;57.94
50105;BME280;47690;39.202;-77.198;2023-10-13T14:09:53;100288.41;;;17.42;57.84
50105;BME280;47690;39.202;-77.198;2023-10-13T14:12:38;100277.19;;;17.41;57.55
50105;BME280;47690;39.202;-77.198;2023-10-13T14:15:10;100280.59;;;17.42;57.49
50105;BME280;47690;39.202;-77.198;2023-10-13T14:17:48;100284.06;;;17.42;57.75
50105;BME280;47690;39.202;-77.198;2023-10-13T14:20:21;100283.31;;;17.40;57.13
50105;BME280;47690;39.202;-77.198;2023-10-13T14:23:12;100284.06;;;17.42;56.34
50105;BME280;47690;39.202;-77.198;2023-10-13T14:25:50;100281.72;;;17.36;56.54
50105;BME280;47690;39.202;-77.198;2023-10-13T14:28:20;100277.50;;;17.33;57.09
50105;BME280;47690;39.202;-77.198;2023-10-13T14:30:51;100271.47;;;17.33;56.93
50105;BME280;47690;39.202;-77.198;2023-10-13T14:33:40;100275.59;;;17.37;56.01
50105;BME280;47690;39.202;-77.198;2023-10-13T14:36:17;100278.28;;;17.36;56.31
50105;BME280;47690;39.202;-77.198;2023-10-13T14:39:16;100272.09;;;17.38;55.86
50105;BME280;47690;39.202;-77.198;2023-10-13T14:41:49;100273.09;;;17.36;56.21
50105;BME280;47690;39.202;-77.198;2023-10-13T14:44:18;100260.34;;;17.29;56.24
50105;BME280;47690;39.202;-77.198;2023-10-13T14:46:50;100261.75;;;17.37;56.27
50105;BME280;47690;39.202;-77.198;2023-10-13T14:49:24;100261.75;;;17.37;55.98
50105;BME280;47690;39.202;-77.198;2023-10-13T14:51:54;100261.81;;;17.35;55.63
50105;BME280;47690;39.202;-77.198;2023-10-13T14:54:29;100271.06;;;17.42;55.18
50105;BME280;47690;39.202;-77.198;2023-10-13T14:57:04;100270.13;;;17.43;55.24
50105;BME280;47690;39.202;-77.198;2023-10-13T14:59:35;100273.44;;;17.47;55.07
50105;BME280;47690;39.202;-77.198;2023-10-13T15:02:35;100267.97;;;17.53;53.92
50105;BME280;47690;39.202;-77.198;2023-10-13T15:05:05;100268.25;;;17.47;54.76
50105;BME280;47690;39.202;-77.198;2023-10-13T15:07:33;100277.69;;;17.50;54.19
50105;BME280;47690;39.202;-77.198;2023-10-13T15:10:04;100273.34;;;17.50;54.54
50105;BME280;47690;39.202;-77.198;2023-10-13T15:12:36;100271.44;;;17.54;54.75
50105;BME280;47690;39.202;-77.198;2023-10-13T15:15:13;100269.56;;;17.57;54.24
50105;BME280;47690;39.202;-77.198;2023-10-13T15:17:50;100278.25;;;17.56;53.92
50105;BME280;47690;39.202;-77.198;2023-10-13T15:20:20;100276.44;;;17.58;54.25